Terminal Aerodrome Forecast
Issued by NWS

Home | Current Version | Previous Version | Text Only | Print | Product List | Glossary On
Versions: 1 2 3 4 5 6 7 8 9 10 11 12 13 14 15 16 17
396
FTUS44 KBMX 221754 AAA
TAFTCL
TAF AMD
KTCL 221754Z 2218/2318 01007KT P6SM BKN028 BKN035
     FM222100 34005KT 4SM RA VCTS BKN020CB
     FM230600 07003KT 6SM SHRA VCTS BKN007CB OVC025=

USA.gov is the U.S. government's official web portal to all federal, state and local government web resources and services.